Terminal Aerodrome Forecast
Issued by NWS

Home | Current Version | Previous Version | Text Only | Print | Product List | Glossary On
Versions: 1 2 3 4 5 6 7 8 9 10 11 12 13 14 15 16 17 18 19 20 21 22 23 24 25 26 27 28 29 30 31 32 33 34 35 36 37 38 39 40 41 42 43 44 45 46 47 48 49 50
395
FTUS41 KCTP 261140
TAFJST
TAF
KJST 261140Z 2612/2712 08004KT 1/4SM FG VV002
      TEMPO 2613/2614 1 1/2SM BR OVC004
     FM261400 VRB03KT 3SM BR OVC005
     FM261600 VRB04KT P6SM SCT006 BKN015
     FM261700 17005KT P6SM BKN028
     FM262300 15004KT P6SM SCT030
     FM270400 15005KT 4SM BR OVC006=

USA.gov is the U.S. government's official web portal to all federal, state and local government web resources and services.